createdAt,value
2022-08-09T00:00:46.483Z,0
2022-08-09T00:06:22.242Z,0
2022-08-09T00:12:04.923Z,0
2022-08-09T00:18:11.017Z,0
2022-08-09T00:24:00.082Z,0
2022-08-09T00:30:23.738Z,0
2022-08-09T00:35:51.186Z,0
2022-08-09T00:44:20.591Z,0
2022-08-09T00:49:56.880Z,0
2022-08-09T00:56:09.679Z,0
2022-08-09T01:01:45.461Z,0
2022-08-09T01:07:14.116Z,0
2022-08-09T01:12:36.574Z,0
2022-08-09T01:18:08.644Z,0
2022-08-09T01:24:05.063Z,0
2022-08-09T01:35:38.155Z,0
2022-08-09T01:41:06.392Z,0
2022-08-09T01:46:28.582Z,0
2022-08-09T01:51:56.534Z,0
2022-08-09T01:57:20.743Z,0
2022-08-09T02:02:44.380Z,0
2022-08-09T02:08:59.625Z,0
2022-08-09T02:20:01.416Z,0
2022-08-09T02:25:27.585Z,0
2022-08-09T02:30:51.917Z,0
2022-08-09T02:36:14.937Z,0
2022-08-09T02:41:41.122Z,0
2022-08-09T02:47:04.548Z,0
2022-08-09T02:52:29.859Z,0
2022-08-09T02:58:37.360Z,0
2022-08-09T03:04:19.677Z,0
2022-08-09T03:09:43.342Z,0
2022-08-09T03:15:23.227Z,0
2022-08-09T03:21:03.923Z,0
2022-08-09T03:26:32.277Z,0
2022-08-09T03:32:00.898Z,0
2022-08-09T03:43:22.829Z,0
2022-08-09T03:48:52.132Z,0
2022-08-09T03:54:16.199Z,0
2022-08-09T03:59:55.929Z,2
2022-08-09T04:11:02.930Z,18
2022-08-09T04:16:33.584Z,20.1
2022-08-09T04:21:57.672Z,24.6
2022-08-09T04:27:23.247Z,29
2022-08-09T04:32:48.014Z,34.3
2022-08-09T05:15:48.293Z,88.2
2022-08-09T05:21:29.634Z,96.9
2022-08-09T05:27:17.322Z,117.9
2022-08-09T05:32:43.602Z,105.2
2022-08-09T05:38:22.414Z,111.4
2022-08-09T05:43:49.692Z,125.1
2022-08-09T05:50:39.824Z,153.1
2022-08-09T05:56:55.638Z,167.8
2022-08-09T06:02:31.399Z,599.9
2022-08-09T06:08:09.119Z,229
2022-08-09T06:13:55.253Z,227.1
2022-08-09T06:19:21.090Z,1322.9
2022-08-09T06:24:45.367Z,598.8
2022-08-09T06:30:18.421Z,2702.1
2022-08-09T06:35:58.309Z,1304.5
2022-08-09T06:41:22.363Z,941.8
2022-08-09T06:47:42.253Z,1188.5
2022-08-09T06:53:06.209Z,1198.3
2022-08-09T07:00:58.092Z,1348.9
2022-08-09T07:06:29.857Z,987.2
2022-08-09T07:11:57.239Z,1203.2
2022-08-09T07:17:20.146Z,722.1
2022-08-09T07:22:52.855Z,1522.2
2022-08-09T07:28:28.547Z,1555.1
2022-08-09T07:33:55.968Z,1648.7
2022-08-09T07:39:42.608Z,1672.1
2022-08-09T07:45:41.187Z,1532.7
2022-08-09T07:52:16.603Z,447.2
2022-08-09T07:57:47.637Z,572.1
2022-08-09T08:03:11.820Z,936.9
2022-08-09T08:09:05.222Z,975.9
2022-08-09T08:15:10.546Z,696.6
2022-08-09T08:20:43.056Z,478.3
2022-08-09T08:26:13.197Z,1573.8
2022-08-09T08:32:08.920Z,1876.6
2022-08-09T08:38:11.716Z,2106.6
2022-08-09T08:43:36.364Z,2243.7
2022-08-09T08:48:59.839Z,2242.7
2022-08-09T08:54:30.366Z,1793.8
2022-08-09T08:59:57.514Z,2024.3
2022-08-09T09:06:05.359Z,2303.8
2022-08-09T09:17:53.242Z,2180.4
2022-08-09T09:23:16.082Z,2044.7
2022-08-09T09:30:05.609Z,2231.7
2022-08-09T09:35:39.936Z,1830.8
2022-08-09T09:41:23.591Z,2103.9
2022-08-09T09:47:08.724Z,2176.6
2022-08-09T09:52:37.792Z,1833.8
2022-08-09T09:58:20.144Z,2191.6
2022-08-09T10:04:10.085Z,2654.6
2022-08-09T10:09:33.203Z,1774.9
2022-08-09T10:14:57.425Z,2875.4
2022-08-09T10:20:35.530Z,2174.9
2022-08-09T10:26:11.318Z,2521
2022-08-09T10:32:40.499Z,2316.8
2022-08-09T10:49:54.121Z,2624.9
2022-08-09T10:55:17.267Z,2860.6
2022-08-09T11:03:13.233Z,2625.5
2022-08-09T11:09:17.674Z,2580.9
2022-08-09T11:14:40.723Z,2363.5
2022-08-09T11:20:22.856Z,2170.1
2022-08-09T11:25:48.705Z,2705.6
2022-08-09T11:31:36.773Z,2342.9
2022-08-09T11:36:59.815Z,2490.3
2022-08-09T11:42:22.349Z,2156.8
2022-08-09T11:47:45.569Z,2461.5
2022-08-09T11:58:50.690Z,2232.6
2022-08-09T12:04:32.624Z,2232.5
2022-08-09T12:10:02.552Z,2199.5
2022-08-09T12:21:38.185Z,2112.6
2022-08-09T12:29:29.888Z,2065.4
2022-08-09T12:35:22.280Z,2179.9
2022-08-09T12:40:44.404Z,2367.7
2022-08-09T12:53:09.713Z,2088.7
2022-08-09T12:58:58.085Z,1873.4
2022-08-09T13:04:38.867Z,2169.3
2022-08-09T13:15:53.230Z,2296.6
2022-08-09T13:23:00.766Z,2415.1
2022-08-09T13:30:39.501Z,2777.4
2022-08-09T13:37:57.295Z,2457
2022-08-09T13:43:38.973Z,2757.4
2022-08-09T13:49:05.762Z,2731.7
2022-08-09T13:54:59.585Z,2747.5
2022-08-09T14:00:29.384Z,2770.5
2022-08-09T14:06:02.573Z,2562.4
2022-08-09T14:11:47.886Z,2751.1
2022-08-09T14:17:12.775Z,3047.5
2022-08-09T14:22:44.631Z,2814.3
2022-08-09T14:28:10.314Z,2613.8
2022-08-09T14:33:38.621Z,2700.5
2022-08-09T14:39:08.798Z,2439.4
2022-08-09T14:44:59.772Z,2769.4
2022-08-09T14:50:24.285Z,2654.8
2022-08-09T14:55:56.512Z,2305.9
2022-08-09T15:01:21.120Z,2667.4
2022-08-09T15:06:50.012Z,1417.9
2022-08-09T15:12:16.241Z,325.8
2022-08-09T15:17:50.043Z,278
2022-08-09T15:31:08.901Z,215.3
2022-08-09T15:36:48.593Z,196.7
2022-08-09T15:42:29.102Z,181.8
2022-08-09T15:48:16.193Z,168.6
2022-08-09T15:54:21.071Z,156.3
2022-08-09T16:00:05.786Z,145.6
2022-08-09T16:05:55.293Z,140.6
2022-08-09T16:11:26.802Z,132.9
2022-08-09T16:16:51.511Z,131.9
2022-08-09T16:22:20.528Z,128.9
2022-08-09T16:27:51.340Z,121.5
2022-08-09T16:33:16.435Z,122.5
2022-08-09T16:39:01.716Z,121.5
2022-08-09T16:44:32.349Z,115.7
2022-08-09T16:50:34.550Z,113.7
2022-08-09T16:56:09.847Z,106.1
2022-08-09T17:01:34.329Z,105.9
2022-08-09T17:09:01.151Z,99.7
2022-08-09T17:16:02.039Z,88.3
2022-08-09T17:21:29.318Z,87.4
2022-08-09T17:26:53.847Z,83.2
2022-08-09T17:33:21.764Z,82.6
2022-08-09T17:38:58.854Z,72.1
2022-08-09T17:44:49.529Z,68
2022-08-09T17:50:24.814Z,65
2022-08-09T17:56:08.198Z,61.7
2022-08-09T18:02:12.573Z,58.1
2022-08-09T18:07:58.788Z,53.1
2022-08-09T18:13:58.865Z,53.7
2022-08-09T18:21:11.224Z,47.3
2022-08-09T18:26:49.578Z,42.5
2022-08-09T18:32:13.070Z,38.5
2022-08-09T18:37:54.545Z,39.5
2022-08-09T18:43:19.264Z,35.7
2022-08-09T18:48:42.711Z,31.9
2022-08-09T18:54:19.966Z,28.1
2022-08-09T19:00:01.619Z,24.7
2022-08-09T19:06:02.660Z,18.3
2022-08-09T19:11:38.670Z,11
2022-08-09T19:17:01.624Z,3
2022-08-09T19:22:26.902Z,0
2022-08-09T19:27:52.599Z,0
2022-08-09T19:38:26.335Z,0
2022-08-09T19:44:03.398Z,0
2022-08-09T19:56:29.449Z,0
2022-08-09T20:02:18.370Z,0
2022-08-09T20:09:53.586Z,0
2022-08-09T20:16:53.329Z,0
2022-08-09T20:22:24.332Z,0
2022-08-09T20:28:00.675Z,0
2022-08-09T20:33:23.243Z,0
2022-08-09T20:40:13.158Z,0
2022-08-09T20:46:33.655Z,0
2022-08-09T20:52:13.450Z,0
2022-08-09T20:58:19.999Z,0
2022-08-09T21:05:58.567Z,0
2022-08-09T21:18:27.362Z,0
2022-08-09T21:27:51.424Z,0
2022-08-09T21:33:36.570Z,0
2022-08-09T21:39:00.249Z,0
2022-08-09T21:45:17.652Z,0
2022-08-09T21:50:51.306Z,0
2022-08-09T21:56:43.419Z,0
2022-08-09T22:02:37.930Z,0
2022-08-09T22:08:05.582Z,0
2022-08-09T22:13:35.586Z,0
2022-08-09T22:19:23.660Z,0
2022-08-09T22:26:12.556Z,0
2022-08-09T22:33:25.034Z,0
2022-08-09T22:39:58.515Z,0
2022-08-09T22:48:34.567Z,0
2022-08-09T22:54:03.573Z,0
2022-08-09T22:59:59.237Z,0
2022-08-09T23:10:57.498Z,0
2022-08-09T23:16:19.993Z,0
2022-08-09T23:21:42.878Z,0
2022-08-09T23:27:05.524Z,0
2022-08-09T23:32:27.945Z,0
2022-08-09T23:43:15.683Z,0
2022-08-09T23:48:40.677Z,0
2022-08-09T23:54:03.889Z,0
2022-08-09T23:59:41.464Z,0
